createdAt,value
2022-12-17T00:03:47.775Z,58.10
2022-12-17T00:08:20.465Z,64.45
2022-12-17T00:12:51.421Z,57.78
2022-12-17T00:17:23.217Z,57.35
2022-12-17T00:22:02.924Z,61.93
2022-12-17T00:26:35.767Z,61.00
2022-12-17T00:31:10.375Z,62.08
2022-12-17T00:35:41.755Z,53.87
2022-12-17T00:40:14.747Z,61.15
2022-12-17T00:44:47.425Z,63.08
2022-12-17T00:49:18.421Z,63.63
2022-12-17T00:53:49.486Z,58.53
2022-12-17T00:58:20.736Z,62.65
2022-12-17T01:02:53.322Z,62.22
2022-12-17T01:07:25.286Z,60.93
2022-12-17T01:12:35.191Z,62.53
2022-12-17T01:17:06.505Z,62.40
2022-12-17T01:21:39.814Z,55.43
2022-12-17T01:26:11.684Z,55.00
2022-12-17T01:30:43.932Z,60.08
2022-12-17T01:35:16.006Z,63.17
2022-12-17T01:39:49.559Z,49.38
2022-12-17T01:45:02.879Z,61.38
2022-12-17T01:49:34.733Z,61.63
2022-12-17T01:54:08.930Z,58.07
2022-12-17T01:58:41.550Z,63.20
2022-12-17T02:03:13.160Z,66.15
2022-12-17T02:07:56.523Z,66.17
2022-12-17T02:12:36.326Z,60.15
2022-12-17T02:17:15.423Z,66.65
2022-12-17T02:21:48.500Z,63.90
2022-12-17T02:26:24.337Z,62.40
2022-12-17T02:30:57.758Z,64.63
2022-12-17T02:35:33.653Z,56.90
2022-12-17T02:40:05.398Z,65.27
2022-12-17T02:44:40.170Z,62.22
2022-12-17T02:49:13.696Z,65.05
2022-12-17T02:53:45.682Z,64.57
2022-12-17T02:58:17.027Z,60.53
2022-12-17T03:02:48.771Z,67.82
2022-12-17T03:07:21.611Z,60.90
2022-12-17T03:11:53.082Z,54.67
2022-12-17T03:16:30.382Z,64.22
2022-12-17T03:21:05.192Z,62.90
2022-12-17T03:25:37.812Z,61.73
2022-12-17T03:30:08.883Z,59.67
2022-12-17T03:34:39.949Z,64.30
2022-12-17T03:39:11.333Z,60.00
2022-12-17T03:43:44.488Z,62.13
2022-12-17T03:48:24.120Z,61.92
2022-12-17T03:52:55.249Z,71.80
2022-12-17T03:57:26.483Z,62.72
2022-12-17T04:01:58.978Z,64.03
2022-12-17T04:06:30.430Z,58.67
2022-12-17T04:11:01.620Z,67.33
2022-12-17T04:15:29.246Z,66.45
2022-12-17T04:20:01.884Z,63.80
2022-12-17T04:24:33.352Z,63.77
2022-12-17T04:29:04.334Z,67.53
2022-12-17T04:33:35.814Z,69.35
2022-12-17T04:38:09.029Z,68.77
2022-12-17T04:42:40.317Z,69.15
2022-12-17T04:47:11.637Z,61.70
2022-12-17T04:51:43.808Z,63.60
2022-12-17T04:56:16.524Z,58.00
2022-12-17T05:00:47.443Z,58.10
2022-12-17T05:05:18.641Z,55.83
2022-12-17T05:09:49.759Z,56.17
2022-12-17T05:14:22.338Z,58.65
2022-12-17T05:18:53.739Z,62.75
2022-12-17T05:23:25.679Z,64.90
2022-12-17T05:27:56.812Z,65.95
2022-12-17T05:32:29.342Z,67.20
2022-12-17T05:37:00.420Z,73.63
2022-12-17T05:41:31.379Z,78.53
2022-12-17T05:46:03.543Z,73.45
2022-12-17T05:50:35.847Z,76.50
2022-12-17T05:55:07.681Z,72.97
2022-12-17T05:59:38.764Z,74.13
2022-12-17T06:04:10.524Z,71.53
2022-12-17T06:08:43.344Z,61.17
2022-12-17T06:13:15.107Z,71.03
2022-12-17T06:17:46.293Z,69.28
2022-12-17T06:22:17.381Z,71.43
2022-12-17T06:26:49.969Z,63.70
2022-12-17T06:31:32.562Z,70.55
2022-12-17T06:36:03.771Z,69.38
2022-12-17T06:40:35.720Z,62.97
2022-12-17T06:45:08.197Z,53.00
2022-12-17T06:49:39.673Z,56.67
2022-12-17T06:54:10.967Z,56.77
2022-12-17T06:58:42.218Z,43.25
2022-12-17T07:03:15.802Z,56.35
2022-12-17T07:07:47.040Z,58.15
2022-12-17T07:12:18.116Z,52.73
2022-12-17T07:16:49.740Z,53.22
2022-12-17T07:21:22.601Z,63.78
2022-12-17T07:25:53.776Z,58.97
2022-12-17T07:30:28.596Z,60.45
2022-12-17T07:34:59.572Z,66.65
2022-12-17T07:39:31.958Z,68.47
2022-12-17T07:44:03.546Z,63.70
2022-12-17T07:48:34.747Z,77.38
2022-12-17T07:53:05.759Z,78.47
2022-12-17T07:57:34.874Z,71.10
2022-12-17T08:02:06.451Z,68.22
2022-12-17T08:06:38.034Z,67.05
2022-12-17T08:11:09.335Z,68.70
2022-12-17T08:15:41.757Z,70.70
2022-12-17T08:20:12.933Z,68.18
2022-12-17T08:24:44.047Z,72.03
2022-12-17T08:29:20.736Z,67.47
2022-12-17T08:33:54.075Z,72.40
2022-12-17T08:38:25.774Z,120.93
2022-12-17T08:42:57.450Z,78.07
2022-12-17T08:47:28.469Z,77.70
2022-12-17T08:52:01.497Z,68.47
2022-12-17T08:56:32.503Z,78.17
2022-12-17T09:01:09.490Z,73.35
2022-12-17T09:05:40.747Z,67.88
2022-12-17T09:10:13.703Z,73.77
2022-12-17T09:14:59.551Z,74.00
2022-12-17T09:19:31.375Z,68.88
2022-12-17T09:24:02.441Z,66.50
2022-12-17T09:28:35.144Z,75.90
2022-12-17T09:33:20.820Z,68.55
2022-12-17T09:37:51.997Z,62.05
2022-12-17T09:42:28.134Z,57.27
2022-12-17T09:47:09.779Z,64.13
2022-12-17T09:51:42.823Z,62.60
2022-12-17T09:56:13.876Z,63.60
2022-12-17T10:00:47.322Z,55.58
2022-12-17T10:05:22.635Z,62.38
2022-12-17T10:09:54.462Z,65.57
2022-12-17T10:14:34.926Z,57.60
2022-12-17T10:19:09.200Z,62.15
2022-12-17T10:23:46.909Z,64.55
2022-12-17T10:28:20.546Z,63.73
2022-12-17T10:32:51.688Z,63.72
2022-12-17T10:37:24.432Z,71.65
2022-12-17T10:42:00.785Z,58.90
2022-12-17T10:46:42.214Z,67.28
2022-12-17T10:51:13.690Z,70.97
2022-12-17T10:55:47.295Z,68.53
2022-12-17T11:00:22.618Z,71.10
2022-12-17T11:04:56.095Z,68.07
2022-12-17T11:09:34.770Z,67.43
2022-12-17T11:14:08.438Z,76.13
2022-12-17T11:18:44.586Z,73.10
2022-12-17T11:23:18.078Z,70.28
2022-12-17T11:27:55.320Z,75.43
2022-12-17T11:33:00.865Z,72.60
2022-12-17T11:37:38.753Z,77.95
2022-12-17T11:42:18.535Z,68.43
2022-12-17T11:46:58.103Z,76.03
2022-12-17T11:51:36.732Z,73.03
2022-12-17T11:56:20.361Z,72.13
2022-12-17T12:01:00.374Z,63.60
2022-12-17T12:05:43.542Z,71.00
2022-12-17T12:10:19.238Z,73.65
2022-12-17T12:14:59.990Z,71.50
2022-12-17T12:19:41.498Z,67.68
2022-12-17T12:24:28.769Z,66.25
2022-12-17T12:29:06.468Z,66.18
2022-12-17T12:33:49.303Z,71.63
2022-12-17T12:38:21.992Z,74.15
2022-12-17T12:43:00.937Z,75.38
2022-12-17T12:47:40.949Z,62.63
2022-12-17T12:52:14.951Z,55.88
2022-12-17T12:56:48.617Z,59.63
2022-12-17T13:01:20.309Z,65.43
2022-12-17T13:05:39.595Z,52.10
2022-12-17T13:09:57.123Z,60.70
2022-12-17T13:14:18.900Z,56.53
2022-12-17T13:18:36.076Z,52.97
2022-12-17T13:22:52.458Z,55.58
2022-12-17T13:27:32.524Z,52.80
2022-12-17T13:31:56.135Z,52.40
2022-12-17T13:36:18.365Z,53.38
2022-12-17T13:40:43.449Z,52.33
2022-12-17T13:44:59.329Z,52.03
2022-12-17T13:49:21.109Z,56.80
2022-12-17T13:53:34.995Z,55.35
2022-12-17T13:57:50.294Z,53.33
2022-12-17T14:02:05.494Z,52.73
2022-12-17T14:06:19.679Z,53.63
2022-12-17T14:10:35.428Z,51.70
2022-12-17T14:14:52.392Z,62.97
2022-12-17T14:19:10.112Z,59.78
2022-12-17T14:23:30.063Z,65.05
2022-12-17T14:27:54.383Z,68.07
2022-12-17T14:32:24.802Z,59.53
2022-12-17T14:36:41.793Z,68.22
2022-12-17T14:40:56.043Z,70.57
2022-12-17T14:45:24.179Z,71.67
2022-12-17T14:49:55.838Z,67.10
2022-12-17T14:54:29.211Z,66.30
2022-12-17T14:58:46.973Z,74.40
2022-12-17T15:03:00.904Z,68.97
2022-12-17T15:07:19.874Z,60.50
2022-12-17T15:11:34.990Z,67.57
2022-12-17T15:15:48.815Z,55.85
2022-12-17T15:20:04.090Z,70.55
2022-12-17T15:24:22.041Z,71.97
2022-12-17T15:28:37.693Z,76.57
2022-12-17T15:32:54.129Z,75.03
2022-12-17T15:37:09.422Z,75.30
2022-12-17T15:41:39.677Z,81.27
2022-12-17T15:45:54.955Z,69.47
2022-12-17T15:50:10.301Z,80.35
2022-12-17T15:54:25.219Z,69.13
2022-12-17T15:58:39.413Z,43.25
2022-12-17T16:02:54.997Z,55.90
2022-12-17T16:07:08.989Z,67.40
2022-12-17T16:11:22.784Z,69.33
2022-12-17T16:15:36.915Z,72.93
2022-12-17T16:19:52.568Z,67.28
2022-12-17T16:24:07.196Z,66.23
2022-12-17T16:28:21.003Z,67.75
2022-12-17T16:32:36.627Z,73.22
2022-12-17T16:36:52.105Z,70.37
2022-12-17T16:41:06.298Z,76.07
2022-12-17T16:45:20.036Z,73.57
2022-12-17T16:49:34.172Z,72.18
2022-12-17T16:53:49.468Z,72.40
2022-12-17T16:58:03.130Z,83.10
2022-12-17T17:02:17.557Z,77.53
2022-12-17T17:06:33.770Z,73.97
2022-12-17T17:10:49.548Z,99.93
2022-12-17T17:15:03.212Z,181.55
2022-12-17T17:19:17.558Z,91.67
2022-12-17T17:23:31.722Z,111.68
2022-12-17T17:27:47.068Z,107.57
2022-12-17T17:32:10.290Z,95.82
2022-12-17T17:36:26.408Z,134.30
2022-12-17T17:40:40.215Z,231.90
2022-12-17T17:44:55.599Z,195.77
2022-12-17T17:49:10.617Z,144.30
2022-12-17T17:53:25.940Z,124.97
2022-12-17T17:57:39.703Z,106.60
2022-12-17T18:01:54.998Z,147.70
2022-12-17T18:06:11.984Z,156.02
2022-12-17T18:10:25.747Z,260.60
2022-12-17T18:14:46.779Z,147.05
2022-12-17T18:19:15.318Z,160.03
2022-12-17T18:23:29.023Z,118.40
2022-12-17T18:27:42.787Z,242.07
2022-12-17T18:31:56.790Z,268.70
2022-12-17T18:36:14.661Z,172.40
2022-12-17T18:40:33.103Z,246.98
2022-12-17T18:44:47.235Z,224.60
2022-12-17T18:49:02.802Z,264.23
2022-12-17T18:53:18.089Z,191.60
2022-12-17T18:57:32.177Z,245.60
2022-12-17T19:01:47.429Z,272.13
2022-12-17T19:06:05.978Z,235.50
2022-12-17T19:10:21.410Z,305.88
2022-12-17T19:14:35.778Z,299.07
2022-12-17T19:18:53.516Z,184.00
2022-12-17T19:23:07.330Z,179.85
2022-12-17T19:27:22.629Z,239.63
2022-12-17T19:31:36.620Z,253.43
2022-12-17T19:35:50.423Z,181.13
2022-12-17T19:40:05.396Z,221.93
2022-12-17T19:44:21.551Z,211.90
2022-12-17T19:48:37.211Z,192.50
2022-12-17T19:52:51.201Z,195.90
2022-12-17T19:57:05.250Z,161.77
2022-12-17T20:01:22.708Z,158.98
2022-12-17T20:05:36.527Z,116.47
2022-12-17T20:09:50.349Z,104.93
2022-12-17T20:14:07.540Z,151.95
2022-12-17T20:18:24.293Z,126.95
2022-12-17T20:22:38.116Z,138.20
2022-12-17T20:26:54.130Z,98.27
2022-12-17T20:31:08.616Z,109.25
2022-12-17T20:35:23.909Z,99.72
2022-12-17T20:39:38.155Z,120.87
2022-12-17T20:43:52.149Z,135.68
2022-12-17T20:48:06.411Z,139.65
2022-12-17T20:52:21.635Z,147.60
2022-12-17T20:56:36.310Z,148.68
2022-12-17T21:00:53.344Z,148.40
2022-12-17T21:05:08.025Z,107.13
2022-12-17T21:09:25.596Z,85.63
2022-12-17T21:13:39.520Z,87.00
2022-12-17T21:17:53.248Z,65.72
2022-12-17T21:22:07.122Z,65.93
2022-12-17T21:26:26.654Z,72.18
2022-12-17T21:30:40.637Z,68.43
2022-12-17T21:34:54.966Z,73.60
2022-12-17T21:39:09.936Z,69.22
2022-12-17T21:43:25.332Z,69.97
2022-12-17T21:47:39.054Z,76.97
2022-12-17T21:51:53.157Z,66.10
2022-12-17T21:56:08.888Z,73.80
2022-12-17T22:00:24.564Z,73.75
2022-12-17T22:04:38.693Z,72.03
2022-12-17T22:08:54.949Z,72.63
2022-12-17T22:13:29.601Z,67.07
2022-12-17T22:17:45.143Z,59.90
2022-12-17T22:21:58.964Z,63.47
2022-12-17T22:26:12.902Z,68.20
2022-12-17T22:30:44.016Z,73.40
2022-12-17T22:35:31.317Z,63.78
2022-12-17T22:42:27.365Z,65.90
2022-12-17T22:44:43.848Z,64.90
2022-12-17T22:48:41.507Z,74.35
2022-12-17T22:52:57.119Z,65.90
2022-12-17T22:57:34.542Z,68.93
2022-12-17T23:01:45.725Z,69.78
2022-12-17T23:06:07.979Z,59.88
2022-12-17T23:10:24.738Z,70.20
2022-12-17T23:14:38.509Z,20.50
2022-12-17T23:18:52.884Z,68.35
2022-12-17T23:23:06.723Z,58.75
2022-12-17T23:27:21.947Z,62.50
2022-12-17T23:31:37.675Z,63.05
2022-12-17T23:35:51.479Z,66.95
2022-12-17T23:40:06.699Z,69.10
2022-12-17T23:44:24.767Z,59.58
2022-12-17T23:48:45.084Z,61.63
2022-12-17T23:52:59.237Z,56.58
2022-12-17T23:57:13.019Z,67.10
